sensor_id;sensor_type;location;lat;lon;timestamp;P1;durP1;ratioP1;P2;durP2;ratioP2
5650;SDS011;40241;52.684;9.758;2022-09-30T00:00:42;5.60;;;3.60;;
5650;SDS011;40241;52.684;9.758;2022-09-30T00:03:07;4.00;;;3.20;;
5650;SDS011;40241;52.684;9.758;2022-09-30T00:05:32;4.30;;;3.67;;
5650;SDS011;40241;52.684;9.758;2022-09-30T00:07:58;9.07;;;3.60;;
5650;SDS011;40241;52.684;9.758;2022-09-30T00:10:23;4.00;;;3.60;;
5650;SDS011;40241;52.684;9.758;2022-09-30T00:12:50;4.50;;;3.90;;
5650;SDS011;40241;52.684;9.758;2022-09-30T00:15:16;3.67;;;3.37;;
5650;SDS011;40241;52.684;9.758;2022-09-30T00:17:42;3.93;;;3.00;;
5650;SDS011;40241;52.684;9.758;2022-09-30T00:20:07;4.10;;;3.50;;
5650;SDS011;40241;52.684;9.758;2022-09-30T00:22:33;6.37;;;3.97;;
5650;SDS011;40241;52.684;9.758;2022-09-30T00:24:59;8.00;;;4.07;;
5650;SDS011;40241;52.684;9.758;2022-09-30T00:27:24;6.30;;;3.27;;
5650;SDS011;40241;52.684;9.758;2022-09-30T00:29:50;4.53;;;3.33;;
5650;SDS011;40241;52.684;9.758;2022-09-30T00:32:15;4.40;;;3.40;;
5650;SDS011;40241;52.684;9.758;2022-09-30T00:34:40;3.33;;;3.03;;
5650;SDS011;40241;52.684;9.758;2022-09-30T00:37:06;10.03;;;3.83;;
5650;SDS011;40241;52.684;9.758;2022-09-30T00:39:32;4.40;;;4.03;;
5650;SDS011;40241;52.684;9.758;2022-09-30T00:42:02;6.20;;;3.53;;
5650;SDS011;40241;52.684;9.758;2022-09-30T00:44:41;6.30;;;3.80;;
5650;SDS011;40241;52.684;9.758;2022-09-30T00:52:38;9.93;;;3.90;;
5650;SDS011;40241;52.684;9.758;2022-09-30T00:55:05;4.57;;;3.67;;
5650;SDS011;40241;52.684;9.758;2022-09-30T00:57:33;4.23;;;3.30;;
5650;SDS011;40241;52.684;9.758;2022-09-30T01:00:00;4.40;;;4.00;;
5650;SDS011;40241;52.684;9.758;2022-09-30T01:02:25;4.90;;;4.50;;
5650;SDS011;40241;52.684;9.758;2022-09-30T01:04:51;6.73;;;4.17;;
5650;SDS011;40241;52.684;9.758;2022-09-30T01:07:19;8.73;;;3.50;;
5650;SDS011;40241;52.684;9.758;2022-09-30T01:09:46;4.80;;;3.90;;
5650;SDS011;40241;52.684;9.758;2022-09-30T01:12:14;3.60;;;3.30;;
5650;SDS011;40241;52.684;9.758;2022-09-30T01:14:43;4.00;;;3.70;;
5650;SDS011;40241;52.684;9.758;2022-09-30T01:23:13;5.33;;;3.47;;
5650;SDS011;40241;52.684;9.758;2022-09-30T01:25:55;3.80;;;3.50;;
5650;SDS011;40241;52.684;9.758;2022-09-30T01:31:06;3.20;;;3.00;;
5650;SDS011;40241;52.684;9.758;2022-09-30T01:42:05;3.73;;;3.43;;
5650;SDS011;40241;52.684;9.758;2022-09-30T01:47:45;3.90;;;3.50;;
5650;SDS011;40241;52.684;9.758;2022-09-30T01:55:36;3.70;;;3.40;;
5650;SDS011;40241;52.684;9.758;2022-09-30T01:58:12;5.60;;;3.50;;
5650;SDS011;40241;52.684;9.758;2022-09-30T02:00:59;5.20;;;3.20;;
5650;SDS011;40241;52.684;9.758;2022-09-30T02:03:32;3.60;;;3.13;;
5650;SDS011;40241;52.684;9.758;2022-09-30T02:06:04;3.70;;;3.40;;
5650;SDS011;40241;52.684;9.758;2022-09-30T02:08:40;4.00;;;3.23;;
5650;SDS011;40241;52.684;9.758;2022-09-30T02:11:15;4.20;;;3.80;;
5650;SDS011;40241;52.684;9.758;2022-09-30T02:13:47;4.03;;;3.40;;
5650;SDS011;40241;52.684;9.758;2022-09-30T02:16:20;6.13;;;3.40;;
5650;SDS011;40241;52.684;9.758;2022-09-30T02:19:37;5.00;;;3.00;;
5650;SDS011;40241;52.684;9.758;2022-09-30T02:22:10;3.27;;;3.07;;
5650;SDS011;40241;52.684;9.758;2022-09-30T02:24:40;3.80;;;3.50;;
5650;SDS011;40241;52.684;9.758;2022-09-30T02:27:12;4.20;;;3.80;;
5650;SDS011;40241;52.684;9.758;2022-09-30T02:29:44;6.07;;;3.60;;
5650;SDS011;40241;52.684;9.758;2022-09-30T02:32:16;4.40;;;4.00;;
5650;SDS011;40241;52.684;9.758;2022-09-30T02:34:49;3.90;;;3.60;;
5650;SDS011;40241;52.684;9.758;2022-09-30T02:37:21;4.33;;;3.97;;
5650;SDS011;40241;52.684;9.758;2022-09-30T02:42:41;4.40;;;3.80;;
5650;SDS011;40241;52.684;9.758;2022-09-30T02:45:11;6.00;;;3.70;;
5650;SDS011;40241;52.684;9.758;2022-09-30T02:58:32;4.10;;;3.80;;
5650;SDS011;40241;52.684;9.758;2022-09-30T03:01:00;4.87;;;4.37;;
5650;SDS011;40241;52.684;9.758;2022-09-30T03:03:28;3.93;;;3.63;;
5650;SDS011;40241;52.684;9.758;2022-09-30T03:05:57;8.37;;;4.13;;
5650;SDS011;40241;52.684;9.758;2022-09-30T03:08:22;5.73;;;4.43;;
5650;SDS011;40241;52.684;9.758;2022-09-30T03:10:48;5.10;;;4.60;;
5650;SDS011;40241;52.684;9.758;2022-09-30T03:28:17;4.10;;;3.70;;
5650;SDS011;40241;52.684;9.758;2022-09-30T03:35:58;4.40;;;3.57;;
5650;SDS011;40241;52.684;9.758;2022-09-30T03:41:10;7.60;;;4.27;;
5650;SDS011;40241;52.684;9.758;2022-09-30T03:46:56;4.47;;;3.60;;
5650;SDS011;40241;52.684;9.758;2022-09-30T03:49:50;3.77;;;3.47;;
5650;SDS011;40241;52.684;9.758;2022-09-30T03:52:19;4.77;;;4.37;;
5650;SDS011;40241;52.684;9.758;2022-09-30T03:54:56;5.47;;;4.30;;
5650;SDS011;40241;52.684;9.758;2022-09-30T03:57:25;6.87;;;4.10;;
5650;SDS011;40241;52.684;9.758;2022-09-30T03:59:53;5.90;;;3.80;;
5650;SDS011;40241;52.684;9.758;2022-09-30T04:02:19;4.83;;;4.40;;
5650;SDS011;40241;52.684;9.758;2022-09-30T04:04:45;6.07;;;4.40;;
5650;SDS011;40241;52.684;9.758;2022-09-30T04:07:10;9.13;;;4.50;;
5650;SDS011;40241;52.684;9.758;2022-09-30T04:09:36;6.57;;;4.67;;
5650;SDS011;40241;52.684;9.758;2022-09-30T04:12:02;13.13;;;5.13;;
5650;SDS011;40241;52.684;9.758;2022-09-30T04:14:28;6.30;;;5.53;;
5650;SDS011;40241;52.684;9.758;2022-09-30T04:16:53;8.53;;;5.77;;
5650;SDS011;40241;52.684;9.758;2022-09-30T04:19:18;12.03;;;6.03;;
5650;SDS011;40241;52.684;9.758;2022-09-30T04:21:43;10.73;;;5.50;;
5650;SDS011;40241;52.684;9.758;2022-09-30T04:24:09;8.60;;;4.53;;
5650;SDS011;40241;52.684;9.758;2022-09-30T04:26:34;5.60;;;5.00;;
5650;SDS011;40241;52.684;9.758;2022-09-30T04:28:59;5.50;;;4.93;;
5650;SDS011;40241;52.684;9.758;2022-09-30T04:31:25;6.90;;;4.47;;
5650;SDS011;40241;52.684;9.758;2022-09-30T04:33:50;12.47;;;5.53;;
5650;SDS011;40241;52.684;9.758;2022-09-30T04:36:16;6.70;;;4.60;;
5650;SDS011;40241;52.684;9.758;2022-09-30T04:38:41;9.50;;;5.00;;
5650;SDS011;40241;52.684;9.758;2022-09-30T04:41:08;5.90;;;5.30;;
5650;SDS011;40241;52.684;9.758;2022-09-30T04:43:40;5.27;;;4.57;;
5650;SDS011;40241;52.684;9.758;2022-09-30T04:46:09;5.70;;;5.10;;
5650;SDS011;40241;52.684;9.758;2022-09-30T04:48:34;4.53;;;4.23;;
5650;SDS011;40241;52.684;9.758;2022-09-30T04:50:59;5.50;;;4.83;;
5650;SDS011;40241;52.684;9.758;2022-09-30T04:53:25;5.33;;;4.40;;
5650;SDS011;40241;52.684;9.758;2022-09-30T04:55:56;5.97;;;4.53;;
5650;SDS011;40241;52.684;9.758;2022-09-30T04:58:22;8.20;;;5.33;;
5650;SDS011;40241;52.684;9.758;2022-09-30T05:00:48;7.00;;;5.97;;
5650;SDS011;40241;52.684;9.758;2022-09-30T05:03:13;7.60;;;4.83;;
5650;SDS011;40241;52.684;9.758;2022-09-30T05:05:42;10.73;;;6.30;;
5650;SDS011;40241;52.684;9.758;2022-09-30T05:08:08;7.37;;;5.97;;
5650;SDS011;40241;52.684;9.758;2022-09-30T05:10:33;12.03;;;5.93;;
5650;SDS011;40241;52.684;9.758;2022-09-30T05:12:58;10.10;;;5.30;;
5650;SDS011;40241;52.684;9.758;2022-09-30T05:15:24;7.47;;;5.17;;
5650;SDS011;40241;52.684;9.758;2022-09-30T05:17:50;8.10;;;5.20;;
5650;SDS011;40241;52.684;9.758;2022-09-30T05:20:16;7.37;;;5.10;;
5650;SDS011;40241;52.684;9.758;2022-09-30T05:22:42;6.70;;;5.30;;
5650;SDS011;40241;52.684;9.758;2022-09-30T05:25:08;5.83;;;4.70;;
5650;SDS011;40241;52.684;9.758;2022-09-30T05:27:33;8.60;;;5.80;;
5650;SDS011;40241;52.684;9.758;2022-09-30T05:29:59;6.73;;;5.30;;
5650;SDS011;40241;52.684;9.758;2022-09-30T05:32:24;6.53;;;5.47;;
5650;SDS011;40241;52.684;9.758;2022-09-30T05:34:50;9.03;;;5.30;;
5650;SDS011;40241;52.684;9.758;2022-09-30T05:37:16;5.73;;;5.20;;
5650;SDS011;40241;52.684;9.758;2022-09-30T05:39:41;8.67;;;5.50;;
5650;SDS011;40241;52.684;9.758;2022-09-30T05:42:06;6.13;;;5.53;;
5650;SDS011;40241;52.684;9.758;2022-09-30T05:44:32;6.27;;;5.50;;
5650;SDS011;40241;52.684;9.758;2022-09-30T05:46:58;5.83;;;5.30;;
5650;SDS011;40241;52.684;9.758;2022-09-30T05:49:24;5.43;;;4.93;;
5650;SDS011;40241;52.684;9.758;2022-09-30T05:51:50;6.03;;;5.40;;
5650;SDS011;40241;52.684;9.758;2022-09-30T05:54:16;6.10;;;5.20;;
5650;SDS011;40241;52.684;9.758;2022-09-30T05:56:41;6.80;;;5.50;;
5650;SDS011;40241;52.684;9.758;2022-09-30T05:59:07;15.00;;;5.13;;
5650;SDS011;40241;52.684;9.758;2022-09-30T06:01:32;5.57;;;4.77;;
5650;SDS011;40241;52.684;9.758;2022-09-30T06:03:58;5.63;;;5.13;;
5650;SDS011;40241;52.684;9.758;2022-09-30T06:06:23;6.33;;;4.90;;
5650;SDS011;40241;52.684;9.758;2022-09-30T06:08:49;5.73;;;5.23;;
5650;SDS011;40241;52.684;9.758;2022-09-30T06:11:17;6.53;;;5.20;;
5650;SDS011;40241;52.684;9.758;2022-09-30T06:13:44;4.30;;;4.00;;
5650;SDS011;40241;52.684;9.758;2022-09-30T06:16:11;5.97;;;5.47;;
5650;SDS011;40241;52.684;9.758;2022-09-30T06:18:37;5.27;;;4.77;;
5650;SDS011;40241;52.684;9.758;2022-09-30T06:21:06;5.50;;;5.00;;
5650;SDS011;40241;52.684;9.758;2022-09-30T06:23:33;5.13;;;4.73;;
5650;SDS011;40241;52.684;9.758;2022-09-30T06:26:02;6.27;;;5.60;;
5650;SDS011;40241;52.684;9.758;2022-09-30T06:28:28;6.43;;;5.17;;
5650;SDS011;40241;52.684;9.758;2022-09-30T06:30:53;5.27;;;4.77;;
5650;SDS011;40241;52.684;9.758;2022-09-30T06:33:19;5.60;;;5.00;;
5650;SDS011;40241;52.684;9.758;2022-09-30T06:35:45;6.40;;;5.13;;
5650;SDS011;40241;52.684;9.758;2022-09-30T06:38:12;10.40;;;6.10;;
5650;SDS011;40241;52.684;9.758;2022-09-30T06:40:39;6.40;;;5.47;;
5650;SDS011;40241;52.684;9.758;2022-09-30T06:43:05;9.17;;;7.00;;
5650;SDS011;40241;52.684;9.758;2022-09-30T06:45:31;6.43;;;5.80;;
5650;SDS011;40241;52.684;9.758;2022-09-30T06:47:59;7.00;;;5.70;;
5650;SDS011;40241;52.684;9.758;2022-09-30T06:50:26;6.73;;;6.10;;
5650;SDS011;40241;52.684;9.758;2022-09-30T06:52:51;6.17;;;5.40;;
5650;SDS011;40241;52.684;9.758;2022-09-30T06:55:21;8.07;;;6.37;;
5650;SDS011;40241;52.684;9.758;2022-09-30T06:57:48;7.77;;;6.17;;
5650;SDS011;40241;52.684;9.758;2022-09-30T07:00:13;7.30;;;6.40;;
5650;SDS011;40241;52.684;9.758;2022-09-30T07:02:40;6.07;;;5.57;;
5650;SDS011;40241;52.684;9.758;2022-09-30T07:05:06;16.90;;;6.27;;
5650;SDS011;40241;52.684;9.758;2022-09-30T07:07:31;9.40;;;7.13;;
5650;SDS011;40241;52.684;9.758;2022-09-30T07:10:01;6.00;;;5.50;;
5650;SDS011;40241;52.684;9.758;2022-09-30T07:12:27;5.83;;;5.33;;
5650;SDS011;40241;52.684;9.758;2022-09-30T07:14:53;7.50;;;5.57;;
5650;SDS011;40241;52.684;9.758;2022-09-30T07:17:20;6.03;;;5.53;;
5650;SDS011;40241;52.684;9.758;2022-09-30T07:19:46;5.70;;;5.07;;
5650;SDS011;40241;52.684;9.758;2022-09-30T07:22:11;7.07;;;6.30;;
5650;SDS011;40241;52.684;9.758;2022-09-30T07:24:54;10.03;;;6.07;;
5650;SDS011;40241;52.684;9.758;2022-09-30T07:27:21;6.90;;;6.20;;
5650;SDS011;40241;52.684;9.758;2022-09-30T07:29:46;7.70;;;6.53;;
5650;SDS011;40241;52.684;9.758;2022-09-30T07:32:12;7.37;;;6.67;;
5650;SDS011;40241;52.684;9.758;2022-09-30T07:34:38;12.03;;;6.50;;
5650;SDS011;40241;52.684;9.758;2022-09-30T07:37:08;8.77;;;6.80;;
5650;SDS011;40241;52.684;9.758;2022-09-30T07:39:38;7.97;;;7.07;;
5650;SDS011;40241;52.684;9.758;2022-09-30T07:42:04;7.70;;;6.67;;
5650;SDS011;40241;52.684;9.758;2022-09-30T07:44:30;7.27;;;6.60;;
5650;SDS011;40241;52.684;9.758;2022-09-30T07:46:55;8.10;;;7.30;;
5650;SDS011;40241;52.684;9.758;2022-09-30T07:49:21;16.83;;;7.73;;
5650;SDS011;40241;52.684;9.758;2022-09-30T07:51:50;9.10;;;6.97;;
5650;SDS011;40241;52.684;9.758;2022-09-30T07:54:18;8.80;;;7.47;;
5650;SDS011;40241;52.684;9.758;2022-09-30T07:56:46;8.13;;;7.33;;
5650;SDS011;40241;52.684;9.758;2022-09-30T07:59:12;8.20;;;7.37;;
5650;SDS011;40241;52.684;9.758;2022-09-30T08:01:38;8.70;;;7.53;;
5650;SDS011;40241;52.684;9.758;2022-09-30T08:04:05;8.00;;;7.20;;
5650;SDS011;40241;52.684;9.758;2022-09-30T08:06:37;7.77;;;6.83;;
5650;SDS011;40241;52.684;9.758;2022-09-30T08:09:04;6.83;;;6.23;;
5650;SDS011;40241;52.684;9.758;2022-09-30T08:11:34;6.70;;;6.07;;
5650;SDS011;40241;52.684;9.758;2022-09-30T08:14:01;9.13;;;6.70;;
5650;SDS011;40241;52.684;9.758;2022-09-30T08:16:26;7.60;;;6.90;;
5650;SDS011;40241;52.684;9.758;2022-09-30T08:18:55;7.10;;;6.40;;
5650;SDS011;40241;52.684;9.758;2022-09-30T08:21:22;10.60;;;6.40;;
5650;SDS011;40241;52.684;9.758;2022-09-30T08:23:47;6.37;;;5.77;;
5650;SDS011;40241;52.684;9.758;2022-09-30T08:26:13;7.60;;;6.03;;
5650;SDS011;40241;52.684;9.758;2022-09-30T08:28:40;6.90;;;6.30;;
5650;SDS011;40241;52.684;9.758;2022-09-30T08:31:09;7.67;;;6.40;;
5650;SDS011;40241;52.684;9.758;2022-09-30T08:33:35;7.27;;;6.57;;
5650;SDS011;40241;52.684;9.758;2022-09-30T08:36:02;9.33;;;6.37;;
5650;SDS011;40241;52.684;9.758;2022-09-30T08:38:28;10.97;;;6.90;;
5650;SDS011;40241;52.684;9.758;2022-09-30T08:41:02;7.27;;;6.60;;
5650;SDS011;40241;52.684;9.758;2022-09-30T08:51:53;5.10;;;4.60;;
5650;SDS011;40241;52.684;9.758;2022-09-30T08:54:20;5.70;;;5.20;;
5650;SDS011;40241;52.684;9.758;2022-09-30T08:56:48;6.37;;;4.73;;
5650;SDS011;40241;52.684;9.758;2022-09-30T09:01:57;5.30;;;4.80;;
5650;SDS011;40241;52.684;9.758;2022-09-30T09:04:26;7.23;;;4.80;;
5650;SDS011;40241;52.684;9.758;2022-09-30T09:06:53;5.47;;;5.07;;
5650;SDS011;40241;52.684;9.758;2022-09-30T09:09:32;8.80;;;4.67;;
5650;SDS011;40241;52.684;9.758;2022-09-30T09:12:14;5.30;;;4.80;;
5650;SDS011;40241;52.684;9.758;2022-09-30T09:20:28;5.33;;;4.87;;
5650;SDS011;40241;52.684;9.758;2022-09-30T09:22:57;5.17;;;4.70;;
5650;SDS011;40241;52.684;9.758;2022-09-30T09:25:27;6.50;;;5.10;;
5650;SDS011;40241;52.684;9.758;2022-09-30T09:27:54;7.00;;;4.70;;
5650;SDS011;40241;52.684;9.758;2022-09-30T09:30:25;4.13;;;3.80;;
5650;SDS011;40241;52.684;9.758;2022-09-30T09:33:20;5.13;;;4.20;;
5650;SDS011;40241;52.684;9.758;2022-09-30T09:35:53;5.37;;;4.63;;
5650;SDS011;40241;52.684;9.758;2022-09-30T09:38:26;4.20;;;3.90;;
5650;SDS011;40241;52.684;9.758;2022-09-30T09:41:32;4.10;;;3.80;;
5650;SDS011;40241;52.684;9.758;2022-09-30T09:44:01;3.80;;;3.50;;
5650;SDS011;40241;52.684;9.758;2022-09-30T09:46:49;5.77;;;4.50;;
5650;SDS011;40241;52.684;9.758;2022-09-30T09:54:32;4.30;;;3.90;;
5650;SDS011;40241;52.684;9.758;2022-09-30T09:57:06;4.20;;;3.90;;
5650;SDS011;40241;52.684;9.758;2022-09-30T09:59:35;4.30;;;4.00;;
5650;SDS011;40241;52.684;9.758;2022-09-30T10:02:20;4.50;;;4.10;;
5650;SDS011;40241;52.684;9.758;2022-09-30T10:04:48;4.77;;;4.40;;
5650;SDS011;40241;52.684;9.758;2022-09-30T10:07:23;3.27;;;2.97;;
5650;SDS011;40241;52.684;9.758;2022-09-30T10:09:50;3.77;;;3.33;;
5650;SDS011;40241;52.684;9.758;2022-09-30T10:12:42;4.80;;;3.40;;
5650;SDS011;40241;52.684;9.758;2022-09-30T10:15:22;3.20;;;2.97;;
5650;SDS011;40241;52.684;9.758;2022-09-30T10:17:53;3.47;;;3.17;;
5650;SDS011;40241;52.684;9.758;2022-09-30T10:22:50;3.70;;;3.43;;
5650;SDS011;40241;52.684;9.758;2022-09-30T10:25:25;3.53;;;3.00;;
5650;SDS011;40241;52.684;9.758;2022-09-30T10:27:57;4.00;;;3.70;;
5650;SDS011;40241;52.684;9.758;2022-09-30T10:33:19;3.37;;;3.17;;
5650;SDS011;40241;52.684;9.758;2022-09-30T10:35:51;3.83;;;3.47;;
5650;SDS011;40241;52.684;9.758;2022-09-30T10:38:20;3.47;;;3.17;;
5650;SDS011;40241;52.684;9.758;2022-09-30T10:40:48;3.17;;;2.97;;
5650;SDS011;40241;52.684;9.758;2022-09-30T10:43:26;4.70;;;3.40;;
5650;SDS011;40241;52.684;9.758;2022-09-30T10:45:55;3.03;;;2.83;;
5650;SDS011;40241;52.684;9.758;2022-09-30T10:48:26;4.90;;;3.30;;
5650;SDS011;40241;52.684;9.758;2022-09-30T10:50:55;3.70;;;3.40;;
5650;SDS011;40241;52.684;9.758;2022-09-30T10:53:22;4.13;;;3.80;;
5650;SDS011;40241;52.684;9.758;2022-09-30T10:55:50;3.03;;;2.73;;
5650;SDS011;40241;52.684;9.758;2022-09-30T11:01:23;3.63;;;2.57;;
5650;SDS011;40241;52.684;9.758;2022-09-30T11:06:30;2.57;;;2.37;;
5650;SDS011;40241;52.684;9.758;2022-09-30T11:12:08;3.73;;;2.80;;
5650;SDS011;40241;52.684;9.758;2022-09-30T11:14:37;2.63;;;2.50;;
5650;SDS011;40241;52.684;9.758;2022-09-30T11:20:18;8.93;;;2.90;;
5650;SDS011;40241;52.684;9.758;2022-09-30T11:22:51;3.40;;;3.20;;
5650;SDS011;40241;52.684;9.758;2022-09-30T11:33:24;3.70;;;3.40;;
5650;SDS011;40241;52.684;9.758;2022-09-30T11:36:11;3.30;;;3.00;;
5650;SDS011;40241;52.684;9.758;2022-09-30T11:41:35;3.20;;;3.00;;
5650;SDS011;40241;52.684;9.758;2022-09-30T11:44:13;3.73;;;2.87;;
5650;SDS011;40241;52.684;9.758;2022-09-30T11:58:00;4.57;;;2.97;;
5650;SDS011;40241;52.684;9.758;2022-09-30T12:00:30;2.53;;;2.33;;
5650;SDS011;40241;52.684;9.758;2022-09-30T12:03:00;2.10;;;2.00;;
5650;SDS011;40241;52.684;9.758;2022-09-30T12:05:43;2.40;;;2.30;;
5650;SDS011;40241;52.684;9.758;2022-09-30T12:08:23;2.50;;;2.03;;
5650;SDS011;40241;52.684;9.758;2022-09-30T12:10:54;3.10;;;2.57;;
5650;SDS011;40241;52.684;9.758;2022-09-30T12:13:25;2.33;;;2.13;;
5650;SDS011;40241;52.684;9.758;2022-09-30T12:15:55;2.80;;;2.27;;
5650;SDS011;40241;52.684;9.758;2022-09-30T12:18:26;2.17;;;2.07;;
5650;SDS011;40241;52.684;9.758;2022-09-30T12:20:57;2.30;;;2.10;;
5650;SDS011;40241;52.684;9.758;2022-09-30T12:23:35;2.40;;;2.20;;
5650;SDS011;40241;52.684;9.758;2022-09-30T12:26:06;2.87;;;2.37;;
5650;SDS011;40241;52.684;9.758;2022-09-30T12:28:45;3.30;;;2.37;;
5650;SDS011;40241;52.684;9.758;2022-09-30T12:32:23;1.80;;;1.70;;
5650;SDS011;40241;52.684;9.758;2022-09-30T12:48:02;4.50;;;3.20;;
5650;SDS011;40241;52.684;9.758;2022-09-30T12:50:53;2.43;;;2.27;;
5650;SDS011;40241;52.684;9.758;2022-09-30T12:55:52;2.43;;;2.27;;
5650;SDS011;40241;52.684;9.758;2022-09-30T13:01:06;3.10;;;2.40;;
5650;SDS011;40241;52.684;9.758;2022-09-30T13:06:15;3.03;;;2.80;;
5650;SDS011;40241;52.684;9.758;2022-09-30T13:14:21;2.33;;;2.13;;
5650;SDS011;40241;52.684;9.758;2022-09-30T13:19:52;2.50;;;2.37;;
5650;SDS011;40241;52.684;9.758;2022-09-30T13:29:58;2.47;;;2.27;;
5650;SDS011;40241;52.684;9.758;2022-09-30T13:43:18;2.00;;;1.90;;
5650;SDS011;40241;52.684;9.758;2022-09-30T13:45:48;3.97;;;2.20;;
5650;SDS011;40241;52.684;9.758;2022-09-30T13:48:17;2.90;;;2.13;;
5650;SDS011;40241;52.684;9.758;2022-09-30T13:50:50;6.90;;;2.10;;
5650;SDS011;40241;52.684;9.758;2022-09-30T13:53:24;2.63;;;2.47;;
5650;SDS011;40241;52.684;9.758;2022-09-30T13:55:52;5.23;;;2.83;;
5650;SDS011;40241;52.684;9.758;2022-09-30T14:12:46;1.80;;;1.70;;
5650;SDS011;40241;52.684;9.758;2022-09-30T14:15:22;1.67;;;1.57;;
5650;SDS011;40241;52.684;9.758;2022-09-30T14:21:04;2.00;;;1.90;;
5650;SDS011;40241;52.684;9.758;2022-09-30T14:23:45;1.40;;;1.30;;
5650;SDS011;40241;52.684;9.758;2022-09-30T14:31:50;4.00;;;1.63;;
5650;SDS011;40241;52.684;9.758;2022-09-30T14:34:16;1.67;;;1.57;;
5650;SDS011;40241;52.684;9.758;2022-09-30T14:36:45;2.93;;;1.67;;
5650;SDS011;40241;52.684;9.758;2022-09-30T14:39:14;2.70;;;2.10;;
5650;SDS011;40241;52.684;9.758;2022-09-30T14:41:55;2.43;;;1.73;;
5650;SDS011;40241;52.684;9.758;2022-09-30T14:44:24;3.37;;;1.77;;
5650;SDS011;40241;52.684;9.758;2022-09-30T14:46:52;1.30;;;1.10;;
5650;SDS011;40241;52.684;9.758;2022-09-30T14:49:24;3.30;;;1.40;;
5650;SDS011;40241;52.684;9.758;2022-09-30T14:51:56;2.57;;;1.33;;
5650;SDS011;40241;52.684;9.758;2022-09-30T14:54:24;4.00;;;1.27;;
5650;SDS011;40241;52.684;9.758;2022-09-30T14:56:53;1.10;;;1.00;;
5650;SDS011;40241;52.684;9.758;2022-09-30T14:59:26;1.63;;;1.53;;
5650;SDS011;40241;52.684;9.758;2022-09-30T15:01:59;2.70;;;1.60;;
5650;SDS011;40241;52.684;9.758;2022-09-30T15:04:33;1.27;;;1.17;;
5650;SDS011;40241;52.684;9.758;2022-09-30T15:07:03;1.30;;;1.20;;
5650;SDS011;40241;52.684;9.758;2022-09-30T15:09:40;1.30;;;1.20;;
5650;SDS011;40241;52.684;9.758;2022-09-30T15:12:12;1.93;;;1.50;;
5650;SDS011;40241;52.684;9.758;2022-09-30T15:14:56;1.73;;;1.00;;
5650;SDS011;40241;52.684;9.758;2022-09-30T15:17:44;3.20;;;1.27;;
5650;SDS011;40241;52.684;9.758;2022-09-30T15:20:23;2.20;;;1.43;;
5650;SDS011;40241;52.684;9.758;2022-09-30T15:22:53;5.03;;;1.33;;
5650;SDS011;40241;52.684;9.758;2022-09-30T15:25:20;1.00;;;0.90;;
5650;SDS011;40241;52.684;9.758;2022-09-30T15:27:46;2.73;;;0.70;;
5650;SDS011;40241;52.684;9.758;2022-09-30T15:32:39;3.33;;;1.10;;
5650;SDS011;40241;52.684;9.758;2022-09-30T15:35:05;2.10;;;1.10;;
5650;SDS011;40241;52.684;9.758;2022-09-30T15:37:36;0.80;;;0.80;;
5650;SDS011;40241;52.684;9.758;2022-09-30T15:40:01;1.80;;;1.17;;
5650;SDS011;40241;52.684;9.758;2022-09-30T15:45:31;5.50;;;0.90;;
5650;SDS011;40241;52.684;9.758;2022-09-30T15:48:03;1.83;;;1.10;;
5650;SDS011;40241;52.684;9.758;2022-09-30T15:50:56;3.27;;;0.90;;
5650;SDS011;40241;52.684;9.758;2022-09-30T16:04:01;3.67;;;1.50;;
5650;SDS011;40241;52.684;9.758;2022-09-30T16:06:31;3.17;;;1.30;;
5650;SDS011;40241;52.684;9.758;2022-09-30T16:14:44;1.00;;;0.80;;
5650;SDS011;40241;52.684;9.758;2022-09-30T16:17:22;3.53;;;1.30;;
5650;SDS011;40241;52.684;9.758;2022-09-30T16:19:59;1.00;;;1.00;;
5650;SDS011;40241;52.684;9.758;2022-09-30T16:27:57;0.93;;;0.80;;
5650;SDS011;40241;52.684;9.758;2022-09-30T16:30:25;4.00;;;0.70;;
5650;SDS011;40241;52.684;9.758;2022-09-30T16:32:54;1.90;;;0.80;;
5650;SDS011;40241;52.684;9.758;2022-09-30T16:35:22;4.90;;;0.97;;
5650;SDS011;40241;52.684;9.758;2022-09-30T16:37:49;1.17;;;0.90;;
5650;SDS011;40241;52.684;9.758;2022-09-30T16:40:22;0.67;;;0.67;;
5650;SDS011;40241;52.684;9.758;2022-09-30T16:42:49;1.97;;;0.97;;
5650;SDS011;40241;52.684;9.758;2022-09-30T16:45:18;1.63;;;1.00;;
5650;SDS011;40241;52.684;9.758;2022-09-30T16:47:44;0.80;;;0.77;;
5650;SDS011;40241;52.684;9.758;2022-09-30T16:50:20;1.37;;;0.60;;
5650;SDS011;40241;52.684;9.758;2022-09-30T16:52:47;1.80;;;1.10;;
5650;SDS011;40241;52.684;9.758;2022-09-30T16:55:13;0.93;;;0.57;;
5650;SDS011;40241;52.684;9.758;2022-09-30T16:57:39;1.00;;;0.70;;
5650;SDS011;40241;52.684;9.758;2022-09-30T17:00:05;0.70;;;0.70;;
5650;SDS011;40241;52.684;9.758;2022-09-30T17:02:31;0.70;;;0.70;;
5650;SDS011;40241;52.684;9.758;2022-09-30T17:04:56;0.60;;;0.50;;
5650;SDS011;40241;52.684;9.758;2022-09-30T17:07:22;4.47;;;0.97;;
5650;SDS011;40241;52.684;9.758;2022-09-30T17:09:47;2.73;;;0.60;;
5650;SDS011;40241;52.684;9.758;2022-09-30T17:12:13;2.30;;;0.60;;
5650;SDS011;40241;52.684;9.758;2022-09-30T17:14:39;1.10;;;1.00;;
5650;SDS011;40241;52.684;9.758;2022-09-30T17:17:07;2.17;;;0.90;;
5650;SDS011;40241;52.684;9.758;2022-09-30T17:19:32;0.60;;;0.60;;
5650;SDS011;40241;52.684;9.758;2022-09-30T17:21:59;3.97;;;1.20;;
5650;SDS011;40241;52.684;9.758;2022-09-30T17:24:26;1.00;;;1.00;;
5650;SDS011;40241;52.684;9.758;2022-09-30T17:26:52;0.90;;;0.90;;
5650;SDS011;40241;52.684;9.758;2022-09-30T17:29:17;2.10;;;0.87;;
5650;SDS011;40241;52.684;9.758;2022-09-30T17:31:43;6.03;;;0.87;;
5650;SDS011;40241;52.684;9.758;2022-09-30T17:34:08;1.27;;;1.17;;
5650;SDS011;40241;52.684;9.758;2022-09-30T17:36:34;0.90;;;0.70;;
5650;SDS011;40241;52.684;9.758;2022-09-30T17:39:00;0.70;;;0.70;;
5650;SDS011;40241;52.684;9.758;2022-09-30T17:41:26;4.00;;;1.30;;
5650;SDS011;40241;52.684;9.758;2022-09-30T17:44:10;0.80;;;0.80;;
5650;SDS011;40241;52.684;9.758;2022-09-30T17:46:39;0.70;;;0.63;;
5650;SDS011;40241;52.684;9.758;2022-09-30T17:49:06;6.23;;;0.90;;
5650;SDS011;40241;52.684;9.758;2022-09-30T17:51:33;0.80;;;0.77;;
5650;SDS011;40241;52.684;9.758;2022-09-30T17:53:59;1.07;;;0.73;;
5650;SDS011;40241;52.684;9.758;2022-09-30T17:56:24;4.87;;;1.33;;
5650;SDS011;40241;52.684;9.758;2022-09-30T17:58:49;4.60;;;0.70;;
5650;SDS011;40241;52.684;9.758;2022-09-30T18:01:16;0.60;;;0.60;;
5650;SDS011;40241;52.684;9.758;2022-09-30T18:03:44;1.27;;;0.77;;
5650;SDS011;40241;52.684;9.758;2022-09-30T18:06:09;1.53;;;0.77;;
5650;SDS011;40241;52.684;9.758;2022-09-30T18:08:35;0.83;;;0.83;;
5650;SDS011;40241;52.684;9.758;2022-09-30T18:11:01;7.90;;;1.13;;
5650;SDS011;40241;52.684;9.758;2022-09-30T18:13:26;2.33;;;1.20;;
5650;SDS011;40241;52.684;9.758;2022-09-30T18:15:52;0.80;;;0.80;;
5650;SDS011;40241;52.684;9.758;2022-09-30T18:18:18;5.83;;;0.93;;
5650;SDS011;40241;52.684;9.758;2022-09-30T18:20:45;3.60;;;1.00;;
5650;SDS011;40241;52.684;9.758;2022-09-30T18:23:11;0.70;;;0.70;;
5650;SDS011;40241;52.684;9.758;2022-09-30T18:25:38;2.30;;;1.00;;
5650;SDS011;40241;52.684;9.758;2022-09-30T18:28:05;5.40;;;0.80;;
5650;SDS011;40241;52.684;9.758;2022-09-30T18:30:34;0.77;;;0.77;;
5650;SDS011;40241;52.684;9.758;2022-09-30T18:33:01;2.60;;;0.83;;
5650;SDS011;40241;52.684;9.758;2022-09-30T18:35:28;2.30;;;0.93;;
5650;SDS011;40241;52.684;9.758;2022-09-30T18:37:57;0.70;;;0.70;;
5650;SDS011;40241;52.684;9.758;2022-09-30T18:40:23;3.33;;;0.90;;
5650;SDS011;40241;52.684;9.758;2022-09-30T18:42:53;0.93;;;0.70;;
5650;SDS011;40241;52.684;9.758;2022-09-30T18:45:26;0.70;;;0.67;;
5650;SDS011;40241;52.684;9.758;2022-09-30T18:47:54;2.30;;;0.80;;
5650;SDS011;40241;52.684;9.758;2022-09-30T18:50:21;0.97;;;0.80;;
5650;SDS011;40241;52.684;9.758;2022-09-30T18:52:50;2.10;;;0.90;;
5650;SDS011;40241;52.684;9.758;2022-09-30T18:55:16;1.47;;;1.00;;
5650;SDS011;40241;52.684;9.758;2022-09-30T18:57:42;0.70;;;0.70;;
5650;SDS011;40241;52.684;9.758;2022-09-30T19:00:12;1.40;;;0.90;;
5650;SDS011;40241;52.684;9.758;2022-09-30T19:02:38;1.43;;;0.90;;
5650;SDS011;40241;52.684;9.758;2022-09-30T19:05:04;0.80;;;0.80;;